Time;durP1;ratioP1;P1;durP2;ratioP2;P2;SDS_P1;SDS_P2;PMS_P1;PMS_P2;Temp;Humidity;BMP_temperature;BMP_pressure;BME280_temperature;BME280_humidity;BME280_pressure;Samples;Min_cycle;Max_cycle;Signal;HPM_P1;HPM_P2
2023/09/14 00:00:10;;;;;;;7.20;4.03;;;;;;;12.17;100.00;102232.63;5067387;28;20017;-74
2023/09/14 00:02:35;;;;;;;6.35;4.05;;;;;;;12.11;100.00;102232.69;5061709;28;20525;-74
2023/09/14 00:05:01;;;;;;;5.30;3.63;;;;;;;12.10;100.00;102237.94;5066816;28;20121;-74
2023/09/14 00:07:27;;;;;;;7.35;4.20;;;;;;;12.04;100.00;102236.22;5061063;28;20056;-74
2023/09/14 00:09:53;;;;;;;8.60;4.38;;;;;;;11.99;100.00;102229.28;5066213;28;20092;-74
2023/09/14 00:12:19;;;;;;;9.18;4.25;;;;;;;12.03;100.00;102231.00;5063894;28;20146;-74
2023/09/14 00:14:44;;;;;;;9.65;4.22;;;;;;;12.00;100.00;102233.63;5063342;28;20111;-74
2023/09/14 00:17:10;;;;;;;6.75;3.97;;;;;;;11.95;100.00;102238.91;5065318;28;20032;-74
2023/09/14 00:19:35;;;;;;;9.40;4.10;;;;;;;11.89;100.00;102244.16;5062486;28;20633;-74
2023/09/14 00:22:00;;;;;;;7.40;4.45;;;;;;;11.90;100.00;102238.94;5064402;28;20021;-74
2023/09/14 00:24:26;;;;;;;7.93;4.55;;;;;;;11.88;100.00;102248.53;5062999;28;20033;-74
2023/09/14 00:26:51;;;;;;;9.68;4.78;;;;;;;11.84;100.00;102249.44;5064414;28;20137;-74
2023/09/14 00:29:16;;;;;;;7.55;4.50;;;;;;;11.82;100.00;102238.09;5063320;28;20032;-74
2023/09/14 00:31:42;;;;;;;8.93;4.47;;;;;;;11.76;100.00;102242.47;5063493;28;20061;-74
2023/09/14 00:34:07;;;;;;;8.65;4.80;;;;;;;11.69;100.00;102245.13;5064327;28;20456;-74
2023/09/14 00:36:32;;;;;;;8.55;5.00;;;;;;;11.68;100.00;102234.69;5062758;28;20021;-74
2023/09/14 00:38:57;;;;;;;9.38;4.70;;;;;;;11.67;100.00;102244.28;5064922;28;20035;-74
2023/09/14 00:41:23;;;;;;;10.20;4.85;;;;;;;11.64;100.00;102240.78;5064417;28;20106;-74
2023/09/14 00:43:48;;;;;;;12.38;5.10;;;;;;;11.58;100.00;102227.78;5062013;28;20123;-74
2023/09/14 00:46:14;;;;;;;9.13;4.97;;;;;;;11.58;100.00;102235.63;5067313;28;20025;-74
2023/09/14 00:48:39;;;;;;;8.82;4.95;;;;;;;11.57;100.00;102246.94;5053612;28;20471;-74
2023/09/14 00:51:06;;;;;;;8.98;5.22;;;;;;;11.56;100.00;102246.06;5068914;28;20032;-74
2023/09/14 00:53:32;;;;;;;8.68;5.13;;;;;;;11.53;100.00;102235.63;5061060;28;20376;-74
2023/09/14 00:55:58;;;;;;;9.23;5.50;;;;;;;11.49;100.00;102234.78;5067966;28;20064;-74
2023/09/14 00:58:24;;;;;;;9.73;4.80;;;;;;;11.47;100.00;102240.88;5057142;28;20059;-74
2023/09/14 01:00:50;;;;;;;8.73;4.95;;;;;;;11.42;100.00;102243.53;5062441;28;20025;-74
2023/09/14 01:03:16;;;;;;;9.85;5.10;;;;;;;11.41;100.00;102233.97;5062359;28;20108;-74
2023/09/14 01:05:43;;;;;;;7.75;5.60;;;;;;;11.37;100.00;102234.84;5064356;28;20033;-74
2023/09/14 01:08:09;;;;;;;10.20;5.20;;;;;;;11.34;100.00;102234.84;5061930;28;20025;-74
2023/09/14 01:10:34;;;;;;;8.60;4.93;;;;;;;11.31;100.00;102234.00;5065088;28;20534;-74
2023/09/14 01:13:00;;;;;;;12.75;5.75;;;;;;;11.28;100.00;102240.13;5060872;28;20112;-74
2023/09/14 01:15:27;;;;;;;11.00;5.90;;;;;;;11.31;100.00;102244.44;5067307;28;20039;-74
2023/09/14 01:18:33;;;;;;;7.97;5.05;;;;;;;11.35;100.00;102246.19;5059587;28;20037;-74
2023/09/14 01:21:37;;;;;;;7.65;5.15;;;;;;;11.33;100.00;102247.94;5057164;28;20036;-74
2023/09/14 01:24:29;;;;;;;10.02;5.40;;;;;;;11.28;100.00;102245.34;5053108;28;20524;-74
2023/09/14 01:26:55;;;;;;;11.13;6.05;;;;;;;11.29;100.00;102244.47;5063987;28;20046;-75
2023/09/14 01:29:20;;;;;;;9.68;6.13;;;;;;;11.30;100.00;102246.19;5062738;28;20032;-74
2023/09/14 01:31:46;;;;;;;7.28;5.35;;;;;;;11.22;100.00;102238.41;5062046;28;20543;-74
2023/09/14 01:34:12;;;;;;;9.23;5.50;;;;;;;11.24;100.00;102235.75;5063763;28;20039;-74
2023/09/14 01:36:48;;;;;;;10.65;5.43;;;;;;;11.27;100.00;102238.38;5060644;28;20044;-74
2023/09/14 01:39:15;;;;;;;11.65;5.82;;;;;;;11.27;100.00;102240.97;5070159;28;20039;-74
2023/09/14 01:41:41;;;;;;;10.25;5.43;;;;;;;11.24;100.00;102244.47;5065852;28;20035;-74
2023/09/14 01:44:07;;;;;;;11.00;5.80;;;;;;;11.20;100.00;102240.13;5068270;28;20421;-74
2023/09/14 01:46:33;;;;;;;7.97;5.50;;;;;;;11.19;100.00;102242.75;5071087;28;20494;-74
2023/09/14 01:48:58;;;;;;;9.05;5.43;;;;;;;11.12;100.00;102238.44;5066428;28;20093;-74
2023/09/14 01:51:24;;;;;;;6.30;5.28;;;;;;;11.07;100.00;102238.44;5068823;28;20032;-74
2023/09/14 01:53:49;;;;;;;15.65;6.50;;;;;;;11.08;100.00;102237.56;5066166;28;20033;-74
2023/09/14 01:56:14;;;;;;;12.85;5.95;;;;;;;11.08;100.00;102237.56;5069094;28;20103;-74
2023/09/14 01:58:40;;;;;;;10.38;5.68;;;;;;;11.06;100.00;102243.69;5070716;28;20056;-74
2023/09/14 02:01:05;;;;;;;10.38;5.72;;;;;;;11.04;100.00;102232.38;5068621;28;20464;-74
2023/09/14 02:03:30;;;;;;;9.82;6.47;;;;;;;11.02;100.00;102230.63;5065040;28;20033;-74
2023/09/14 02:06:01;;;;;;;8.52;5.78;;;;;;;11.04;100.00;102235.84;5067969;28;20067;-74
2023/09/14 02:08:33;;;;;;;10.07;6.07;;;;;;;10.95;100.00;102230.63;5055091;28;20031;-74
2023/09/14 02:10:58;;;;;;;9.30;5.70;;;;;;;10.94;100.00;102241.97;5068269;28;20120;-74
2023/09/14 02:13:23;;;;;;;9.10;5.63;;;;;;;10.89;100.00;102230.66;5069800;28;20028;-74
2023/09/14 02:15:49;;;;;;;12.48;6.40;;;;;;;10.93;100.00;102240.22;5067421;28;20036;-74
2023/09/14 02:18:15;;;;;;;11.40;5.85;;;;;;;10.93;100.00;102232.41;5070604;28;20112;-74
2023/09/14 02:20:40;;;;;;;11.85;6.55;;;;;;;10.91;100.00;102228.91;5067508;28;20438;-74
2023/09/14 02:23:07;;;;;;;12.50;6.40;;;;;;;10.90;100.00;102237.63;5069822;28;20025;-74
2023/09/14 02:25:32;;;;;;;9.63;5.80;;;;;;;10.84;100.00;102227.22;5069536;28;20413;-74
2023/09/14 02:27:58;;;;;;;12.45;6.00;;;;;;;10.89;100.00;102236.78;5067073;28;20078;-74
2023/09/14 02:30:26;;;;;;;9.73;5.93;;;;;;;10.84;100.00;102228.06;5075775;28;20521;-74
2023/09/14 02:32:51;;;;;;;8.65;5.85;;;;;;;10.80;100.00;102220.28;5064657;28;20484;-74
2023/09/14 02:35:17;;;;;;;8.95;5.85;;;;;;;10.83;100.00;102225.47;5074577;28;20067;-74
2023/09/14 02:37:42;;;;;;;8.07;5.85;;;;;;;10.80;100.00;102225.47;5069343;28;20081;-74
2023/09/14 02:40:08;;;;;;;8.18;5.40;;;;;;;10.78;100.00;102220.25;5074707;28;20107;-74
2023/09/14 02:42:36;;;;;;;9.32;6.07;;;;;;;10.68;100.00;102214.19;5069595;28;20067;-74
2023/09/14 02:45:02;;;;;;;8.50;5.95;;;;;;;10.64;100.00;102214.22;5073219;28;20042;-74
2023/09/14 02:47:28;;;;;;;8.35;5.60;;;;;;;10.65;100.00;102215.94;5075291;28;20036;-74
2023/09/14 02:49:53;;;;;;;11.18;6.15;;;;;;;10.65;100.00;102214.19;5070639;28;20041;-74
2023/09/14 02:52:18;;;;;;;7.68;5.82;;;;;;;10.60;100.00;102215.97;5075298;28;20086;-74
2023/09/14 02:54:45;;;;;;;13.63;6.13;;;;;;;10.59;100.00;102215.94;5070970;28;20044;-74
2023/09/14 02:57:10;;;;;;;13.27;6.57;;;;;;;10.55;100.00;102212.47;5074272;28;20016;-74
2023/09/14 02:59:35;;;;;;;10.48;5.88;;;;;;;10.58;100.00;102228.13;5071600;28;20017;-74
2023/09/14 03:02:01;;;;;;;8.65;6.05;;;;;;;10.56;100.00;102227.25;5073242;28;20102;-74
2023/09/14 03:04:26;;;;;;;9.30;6.00;;;;;;;10.50;100.00;102216.84;5068455;28;20021;-74
2023/09/14 03:06:53;;;;;;;7.95;5.75;;;;;;;10.42;100.00;102202.94;5073826;28;20060;-74
2023/09/14 03:09:19;;;;;;;13.70;6.13;;;;;;;10.50;100.00;102215.09;5070187;28;20464;-74
2023/09/14 03:11:44;;;;;;;11.30;6.28;;;;;;;10.49;100.00;102221.16;5073458;28;20025;-74
2023/09/14 03:14:10;;;;;;;10.43;6.30;;;;;;;10.45;100.00;102214.22;5070914;28;20035;-74
2023/09/14 03:16:35;;;;;;;9.20;6.40;;;;;;;10.47;100.00;102215.09;5057390;28;20025;-74
2023/09/14 03:19:01;;;;;;;12.68;6.07;;;;;;;10.46;100.00;102220.31;5070796;28;20042;-74
2023/09/14 03:21:27;;;;;;;9.07;6.30;;;;;;;10.45;100.00;102222.03;5073482;28;20032;-74
2023/09/14 03:23:53;;;;;;;12.20;5.60;;;;;;;10.44;100.00;102216.84;5069371;28;20036;-74
2023/09/14 03:26:19;;;;;;;16.77;6.53;;;;;;;10.46;100.00;102226.41;5073093;28;20029;-74
2023/09/14 03:28:48;;;;;;;12.25;6.35;;;;;;;10.45;100.00;102226.41;5071450;28;20155;-74
2023/09/14 03:31:13;;;;;;;8.90;5.88;;;;;;;10.40;100.00;102226.41;5071507;28;20039;-74
2023/09/14 03:33:38;;;;;;;11.70;6.28;;;;;;;10.41;100.00;102230.75;5072755;28;20044;-74
2023/09/14 03:36:04;;;;;;;11.40;6.20;;;;;;;10.39;100.00;102224.66;5069859;28;20044;-75
2023/09/14 03:38:29;;;;;;;9.38;6.07;;;;;;;10.37;100.00;102222.94;5073408;28;20024;-75
2023/09/14 03:40:55;;;;;;;9.23;5.88;;;;;;;10.35;100.00;102225.53;5067171;28;20489;-74
2023/09/14 03:43:20;;;;;;;10.77;6.10;;;;;;;10.33;100.00;102227.25;5073977;28;20387;-74
2023/09/14 03:45:45;;;;;;;11.13;5.70;;;;;;;10.29;100.00;102228.13;5068375;28;20059;-74
2023/09/14 03:48:11;;;;;;;9.48;6.28;;;;;;;10.23;100.00;102233.31;5070744;28;20029;-74
2023/09/14 03:50:36;;;;;;;7.80;5.93;;;;;;;10.19;100.00;102236.78;5073332;28;20388;-74
2023/09/14 03:53:02;;;;;;;10.80;6.35;;;;;;;10.18;100.00;102230.72;5071199;28;20029;-74
2023/09/14 03:55:28;;;;;;;10.88;5.95;;;;;;;10.20;100.00;102228.09;5071753;28;20078;-74
2023/09/14 03:57:54;;;;;;;12.05;6.78;;;;;;;10.22;100.00;102231.59;5073372;28;20505;-74
2023/09/14 04:00:19;;;;;;;10.93;6.55;;;;;;;10.21;100.00;102222.03;5069104;28;20070;-74
2023/09/14 04:02:44;;;;;;;13.23;7.05;;;;;;;10.17;100.00;102223.78;5069666;28;20111;-74
2023/09/14 04:05:17;;;;;;;9.73;6.95;;;;;;;10.18;100.00;102219.44;5070402;28;20024;-74
2023/09/14 04:07:46;;;;;;;10.85;6.82;;;;;;;10.17;100.00;102218.56;5072083;28;20032;-74
2023/09/14 04:10:11;;;;;;;10.65;6.57;;;;;;;10.21;100.00;102233.34;5068686;28;20107;-74
2023/09/14 04:12:40;;;;;;;11.40;6.50;;;;;;;10.19;100.00;102221.16;5058096;28;20159;-74
2023/09/14 04:15:07;;;;;;;12.25;7.32;;;;;;;10.16;100.00;102224.63;5069909;28;20025;-74
2023/09/14 04:17:33;;;;;;;10.70;6.72;;;;;;;10.17;100.00;102217.66;5071905;28;20036;-74
2023/09/14 04:19:58;;;;;;;14.25;7.10;;;;;;;10.01;100.00;102203.78;5068957;28;20032;-74
2023/09/14 04:22:23;;;;;;;12.48;6.80;;;;;;;10.16;100.00;102227.22;5071965;28;20439;-74
2023/09/14 04:24:49;;;;;;;16.08;6.97;;;;;;;10.13;100.00;102226.38;5068743;28;20047;-74
2023/09/14 04:27:15;;;;;;;10.57;6.93;;;;;;;10.11;100.00;102223.78;5071115;28;20020;-74
2023/09/14 04:29:41;;;;;;;10.18;6.20;;;;;;;10.08;100.00;102224.63;5068786;28;20021;-74
2023/09/14 04:32:06;;;;;;;12.77;7.32;;;;;;;10.04;100.00;102222.03;5072005;28;20379;-74
2023/09/14 04:34:31;;;;;;;11.30;7.05;;;;;;;9.95;100.00;102215.06;5067503;28;20115;-74
2023/09/14 04:36:57;;;;;;;9.88;6.82;;;;;;;10.03;100.00;102233.31;5071521;28;20078;-74
2023/09/14 04:39:22;;;;;;;10.00;6.13;;;;;;;10.00;100.00;102228.09;5068218;28;20067;-74
2023/09/14 04:41:47;;;;;;;11.07;6.32;;;;;;;10.02;100.00;102223.75;5070235;28;20376;-74
2023/09/14 04:44:13;;;;;;;11.30;6.60;;;;;;;9.98;100.00;102220.28;5068256;28;20068;-74
2023/09/14 04:46:38;;;;;;;12.05;6.78;;;;;;;9.96;100.00;102224.63;5072432;28;20502;-74
2023/09/14 04:49:03;;;;;;;8.98;6.25;;;;;;;9.94;100.00;102223.75;5068710;28;20049;-74
2023/09/14 04:51:29;;;;;;;11.60;6.93;;;;;;;9.89;100.00;102217.66;5071575;28;20095;-74
2023/09/14 04:53:54;;;;;;;12.00;6.88;;;;;;;9.90;100.00;102229.81;5069426;28;20052;-74
2023/09/14 04:56:19;;;;;;;10.20;6.32;;;;;;;9.87;100.00;102228.94;5071594;28;20082;-74
2023/09/14 04:58:45;;;;;;;8.40;6.07;;;;;;;9.81;100.00;102222.88;5068966;28;20020;-74
2023/09/14 05:01:10;;;;;;;11.73;6.25;;;;;;;9.81;100.00;102224.63;5072193;28;20167;-74
2023/09/14 05:03:36;;;;;;;10.77;6.55;;;;;;;9.82;100.00;102227.22;5066374;28;20086;-74
2023/09/14 05:06:02;;;;;;;12.57;6.78;;;;;;;9.66;100.00;102204.59;5071935;28;20032;-74
2023/09/14 05:08:28;;;;;;;11.32;7.10;;;;;;;9.74;100.00;102225.44;5067976;28;20024;-74
2023/09/14 05:10:56;;;;;;;10.43;6.82;;;;;;;9.76;100.00;102224.59;5071046;28;20638;-74
2023/09/14 05:13:22;;;;;;;12.43;6.13;;;;;;;9.77;100.00;102231.53;5070123;28;20107;-74
2023/09/14 05:15:48;;;;;;;10.40;6.97;;;;;;;9.74;100.00;102228.03;5068410;28;20032;-74
2023/09/14 05:18:15;;;;;;;9.63;6.35;;;;;;;9.76;100.00;102232.41;5072248;28;20508;-74
2023/09/14 05:20:44;;;;;;;10.75;7.03;;;;;;;9.78;100.00;102227.22;5067021;28;20025;-74
2023/09/14 05:23:10;;;;;;;11.65;6.90;;;;;;;9.80;100.00;102234.13;5071692;28;20044;-74
2023/09/14 05:25:35;;;;;;;14.07;7.15;;;;;;;9.81;100.00;102237.63;5066349;28;20353;-74
2023/09/14 05:28:01;;;;;;;12.00;6.72;;;;;;;9.89;100.00;102238.50;5072501;28;20059;-74
2023/09/14 05:30:26;;;;;;;11.27;6.93;;;;;;;9.88;100.00;102239.38;5066793;28;20063;-74
2023/09/14 05:32:52;;;;;;;14.98;6.70;;;;;;;9.90;100.00;102239.38;5070846;28;20650;-74
2023/09/14 05:35:18;;;;;;;11.98;7.05;;;;;;;9.95;100.00;102250.69;5067895;28;20028;-74
2023/09/14 05:37:44;;;;;;;12.18;6.90;;;;;;;9.95;100.00;102253.28;5069316;28;20035;-74
2023/09/14 05:40:10;;;;;;;11.85;6.82;;;;;;;9.97;100.00;102252.44;5067850;28;20032;-74
2023/09/14 05:42:37;;;;;;;10.13;6.88;;;;;;;9.95;100.00;102245.47;5070001;28;20108;-74
2023/09/14 05:45:07;;;;;;;13.15;6.95;;;;;;;10.01;100.00;102258.50;5054797;28;20399;-74
2023/09/14 05:47:32;;;;;;;14.55;8.07;;;;;;;10.05;100.00;102255.91;5071904;28;20044;-74
2023/09/14 05:49:57;;;;;;;12.15;6.90;;;;;;;10.11;100.00;102264.59;5067842;28;20041;-74
2023/09/14 05:52:23;;;;;;;16.08;7.65;;;;;;;10.17;100.00;102259.38;5071202;28;20111;-74
2023/09/14 05:54:49;;;;;;;11.02;7.88;;;;;;;10.22;100.00;102260.25;5068627;28;20056;-74
2023/09/14 05:57:14;;;;;;;13.88;7.30;;;;;;;10.28;100.00;102261.16;5071502;28;20060;-74
2023/09/14 05:59:40;;;;;;;13.27;7.10;;;;;;;10.40;100.00;102262.00;5067546;28;20024;-74
2023/09/14 06:02:06;;;;;;;14.65;7.57;;;;;;;10.44;100.00;102258.56;5071412;28;20060;-74
2023/09/14 06:04:31;;;;;;;12.63;7.32;;;;;;;10.53;100.00;102266.38;5071123;28;20064;-74
2023/09/14 06:06:57;;;;;;;14.25;7.18;;;;;;;10.53;100.00;102254.22;5074344;28;20441;-74
2023/09/14 06:09:22;;;;;;;11.95;7.53;;;;;;;10.64;100.00;102248.13;5072274;28;20475;-74
2023/09/14 06:11:47;;;;;;;15.85;8.27;;;;;;;10.75;100.00;102262.00;5073858;28;20038;-74
2023/09/14 06:14:13;;;;;;;15.95;8.27;;;;;;;10.83;100.00;102257.66;5071702;28;20107;-74
2023/09/14 06:16:38;;;;;;;12.65;8.05;;;;;;;10.88;100.00;102252.41;5074497;28;20112;-74
2023/09/14 06:19:04;;;;;;;15.43;8.40;;;;;;;10.98;100.00;102256.72;5070894;28;20108;-74
2023/09/14 06:21:29;;;;;;;12.07;7.72;;;;;;;11.03;100.00;102255.00;5073931;28;20033;-74
2023/09/14 06:23:56;;;;;;;13.20;8.18;;;;;;;11.09;100.00;102257.59;5071405;28;20033;-74
2023/09/14 06:26:22;;;;;;;15.13;8.45;;;;;;;11.21;100.00;102261.88;5073509;28;20040;-74
2023/09/14 06:28:47;;;;;;;15.98;7.97;;;;;;;11.25;100.00;102255.78;5072024;28;20039;-74
2023/09/14 06:31:13;;;;;;;14.52;8.80;;;;;;;11.38;100.00;102261.81;5073111;28;20025;-74
2023/09/14 06:33:38;;;;;;;19.48;10.43;;;;;;;11.42;100.00;102261.81;5072645;28;20476;-74
2023/09/14 06:36:03;;;;;;;15.52;8.32;;;;;;;11.48;100.00;102259.16;5070754;28;20418;-74
2023/09/14 06:38:29;;;;;;;18.77;9.77;;;;;;;11.56;100.00;102258.25;5075428;28;20032;-74
2023/09/14 06:40:55;;;;;;;15.40;9.48;;;;;;;11.65;100.00;102268.66;5067781;28;20068;-74
2023/09/14 06:43:21;;;;;;;19.23;10.60;;;;;;;11.70;100.00;102251.22;5075180;28;20364;-75
2023/09/14 06:45:46;;;;;;;20.02;10.25;;;;;;;11.81;100.00;102264.22;5070119;28;20043;-74
2023/09/14 06:48:12;;;;;;;20.95;10.45;;;;;;;11.90;100.00;102256.34;5070863;28;20389;-75
2023/09/14 06:50:37;;;;;;;17.77;10.80;;;;;;;11.98;100.00;102261.53;5074538;28;20067;-74
2023/09/14 06:53:02;;;;;;;22.48;10.93;;;;;;;12.05;100.00;102261.47;5073078;28;20033;-74
2023/09/14 06:55:28;;;;;;;18.58;10.10;;;;;;;12.13;100.00;102262.31;5072276;28;20036;-74
2023/09/14 06:57:54;;;;;;;18.92;11.52;;;;;;;12.21;100.00;102257.00;5074767;28;20077;-74
2023/09/14 07:00:21;;;;;;;16.52;10.32;;;;;;;12.30;100.00;102259.56;5070893;28;20112;-75
2023/09/14 07:02:52;;;;;;;20.98;11.35;;;;;;;12.38;100.00;102260.34;5071623;28;20027;-75
2023/09/14 07:05:17;;;;;;;19.65;10.98;;;;;;;12.52;100.00;102268.06;5072886;28;20201;-75
2023/09/14 07:07:43;;;;;;;23.83;10.88;;;;;;;12.71;100.00;102274.00;5074696;28;20105;-74
2023/09/14 07:10:08;;;;;;;18.67;10.30;;;;;;;12.85;100.00;102268.63;5069607;28;20452;-75
2023/09/14 07:12:35;;;;;;;18.88;10.77;;;;;;;13.00;100.00;102265.84;5074180;28;20368;-74
2023/09/14 07:15:00;;;;;;;17.35;10.48;;;;;;;13.11;100.00;102264.00;5069663;28;20028;-74
2023/09/14 07:17:26;;;;;;;18.13;10.23;;;;;;;13.29;100.00;102255.09;5073338;28;20085;-75
2023/09/14 07:19:51;;;;;;;19.13;10.18;;;;;;;13.41;100.00;102261.06;5070037;28;20111;-74
2023/09/14 07:22:18;;;;;;;18.88;10.52;;;;;;;13.57;100.00;102253.00;5072196;28;20032;-75
2023/09/14 07:24:43;;;;;;;19.95;11.18;;;;;;;13.71;100.00;102255.41;5069875;28;20024;-74
2023/09/14 07:27:09;;;;;;;19.20;9.88;;;;;;;13.79;100.00;102255.28;5073024;28;20025;-74
2023/09/14 07:29:35;;;;;;;22.33;11.23;;;;;;;13.87;100.00;102260.44;5068891;28;20051;-74
2023/09/14 07:32:01;;;;;;;16.35;9.95;;;;;;;14.00;100.00;102260.25;5072973;28;20354;-74
2023/09/14 07:34:27;;;;;;;16.88;9.93;;;;;;;14.15;100.00;102272.22;5069518;28;20017;-74
2023/09/14 07:36:52;;;;;;;14.10;9.55;;;;;;;14.25;100.00;102255.44;5056807;28;20021;-74
2023/09/14 07:39:18;;;;;;;17.50;10.52;;;;;;;14.41;100.00;102274.44;5069461;28;20542;-74
2023/09/14 07:41:43;;;;;;;16.15;9.70;;;;;;;14.54;100.00;102271.66;5071943;28;20056;-75
2023/09/14 07:44:08;;;;;;;20.13;9.90;;;;;;;14.67;100.00;102274.03;5069103;28;20025;-74
2023/09/14 07:46:33;;;;;;;18.10;10.15;;;;;;;14.79;100.00;102272.94;5073076;28;20380;-74
2023/09/14 07:48:59;;;;;;;17.45;9.45;;;;;;;14.92;100.00;102277.06;5070414;28;20047;-74
2023/09/14 07:51:25;;;;;;;17.88;8.85;;;;;;;15.01;100.00;102278.66;5072831;28;20024;-75
2023/09/14 07:53:51;;;;;;;16.95;8.93;;;;;;;15.06;100.00;102274.19;5069844;28;20039;-74
2023/09/14 07:56:16;;;;;;;20.00;8.82;;;;;;;15.12;100.00;102278.47;5073112;28;20391;-74
2023/09/14 07:58:42;;;;;;;15.90;8.68;;;;;;;15.18;100.00;102276.56;5068909;28;20046;-75
2023/09/14 08:01:07;;;;;;;16.45;8.98;;;;;;;15.20;100.00;102272.16;5072779;28;20029;-74
2023/09/14 08:03:32;;;;;;;15.82;8.52;;;;;;;15.30;100.00;102282.47;5069845;28;20027;-74
2023/09/14 08:05:58;;;;;;;15.98;9.55;;;;;;;15.32;100.00;102285.94;5072209;28;20514;-74
2023/09/14 08:08:23;;;;;;;17.17;9.30;;;;;;;15.37;100.00;102279.69;5070690;28;20353;-75
2023/09/14 08:10:53;;;;;;;19.73;10.05;;;;;;;15.42;100.00;102285.72;5071110;28;20036;-74
2023/09/14 08:13:19;;;;;;;25.88;10.00;;;;;;;15.42;100.00;102282.22;5071166;28;20605;-75
2023/09/14 08:15:44;;;;;;;26.85;11.07;;;;;;;15.48;100.00;102276.84;5069657;28;20099;-74
2023/09/14 08:18:10;;;;;;;16.77;9.75;;;;;;;15.51;100.00;102275.91;5073290;28;20104;-75
2023/09/14 08:20:39;;;;;;;14.18;9.40;;;;;;;15.60;100.00;102273.09;5066607;28;20481;-75
2023/09/14 08:23:04;;;;;;;15.85;10.05;;;;;;;15.74;100.00;102272.81;5073701;28;20380;-75
2023/09/14 08:25:30;;;;;;;17.83;10.43;;;;;;;15.82;100.00;102279.63;5065505;28;20035;-75
2023/09/14 08:27:58;;;;;;;19.48;10.88;;;;;;;15.92;100.00;102288.16;5059627;28;20074;-75
2023/09/14 08:30:23;;;;;;;21.67;10.35;;;;;;;15.98;100.00;102288.03;5068608;28;20079;-75
2023/09/14 08:32:49;;;;;;;16.65;10.95;;;;;;;16.02;100.00;102283.56;5070581;28;20479;-74
2023/09/14 08:35:22;;;;;;;13.98;10.10;;;;;;;16.05;100.00;102279.09;5068637;28;20570;-74
2023/09/14 08:37:48;;;;;;;17.17;10.50;;;;;;;16.23;100.00;102293.59;5070465;28;20036;-74
2023/09/14 08:40:14;;;;;;;21.73;10.73;;;;;;;16.42;100.00;102283.50;5067589;28;20082;-74
2023/09/14 08:42:41;;;;;;;21.33;10.77;;;;;;;16.59;100.00;102289.19;5070505;28;20040;-74
2023/09/14 08:45:10;;;;;;;18.50;10.98;;;;;;;16.73;100.00;102290.59;5067766;28;20064;-74
2023/09/14 08:47:39;;;;;;;20.85;11.43;;;;;;;16.82;100.00;102295.66;5072052;28;20024;-74
2023/09/14 08:50:05;;;;;;;16.80;10.63;;;;;;;16.91;100.00;102286.66;5068643;28;20116;-75
2023/09/14 08:52:32;;;;;;;18.33;11.85;;;;;;;16.90;100.00;102293.66;5072508;28;20115;-74
2023/09/14 08:54:58;;;;;;;20.25;12.63;;;;;;;16.82;100.00;102285.13;5067400;28;20040;-74
2023/09/14 08:57:25;;;;;;;21.38;12.88;;;;;;;16.80;100.00;102282.50;5072950;28;20399;-74
2023/09/14 08:59:51;;;;;;;15.70;10.85;;;;;;;16.78;100.00;102281.69;5068546;28;20025;-75
2023/09/14 09:02:19;;;;;;;18.35;11.07;;;;;;;16.85;100.00;102278.00;5070927;28;20062;-74
2023/09/14 09:04:44;;;;;;;17.80;11.23;;;;;;;16.90;100.00;102277.84;5069539;28;20047;-74
2023/09/14 09:07:10;;;;;;;17.00;10.77;;;;;;;16.84;100.00;102272.78;5071257;28;20469;-75
2023/09/14 09:09:36;;;;;;;18.35;10.20;;;;;;;16.80;100.00;102284.28;5067451;28;20031;-74
2023/09/14 09:12:01;;;;;;;15.90;9.73;;;;;;;16.91;100.00;102276.97;5071373;28;20016;-74
2023/09/14 09:14:30;;;;;;;16.58;9.15;;;;;;;17.03;100.00;102271.34;5067346;28;20103;-74
2023/09/14 09:16:56;;;;;;;15.55;9.48;;;;;;;17.05;100.00;102274.81;5071075;28;20047;-75
2023/09/14 09:19:21;;;;;;;14.40;9.77;;;;;;;17.15;100.00;102274.56;5067621;28;20472;-75
2023/09/14 09:21:46;;;;;;;14.45;9.65;;;;;;;17.23;100.00;102275.19;5069927;28;20103;-74
2023/09/14 09:24:14;;;;;;;15.02;8.30;;;;;;;17.34;100.00;102264.38;5067577;28;20065;-75
2023/09/14 09:26:41;;;;;;;11.73;7.60;;;;;;;17.44;100.00;102276.38;5070123;28;20031;-75
2023/09/14 09:29:14;;;;;;;12.00;7.00;;;;;;;17.59;100.00;102261.84;5066725;28;20728;-74
2023/09/14 09:31:44;;;;;;;12.20;7.53;;;;;;;17.74;100.00;102262.25;5070102;28;20039;-74
2023/09/14 09:34:12;;;;;;;12.65;7.75;;;;;;;17.88;100.00;102264.47;5067518;28;20107;-74
2023/09/14 09:36:38;;;;;;;12.32;7.47;;;;;;;18.02;100.00;102264.91;5069315;28;20120;-75
2023/09/14 09:39:05;;;;;;;14.95;7.60;;;;;;;18.06;100.00;102270.09;5067939;28;20367;-75
2023/09/14 09:41:34;;;;;;;14.18;7.13;;;;;;;18.19;100.00;102272.28;5069542;28;20055;-75
2023/09/14 09:44:05;;;;;;;12.85;7.63;;;;;;;18.24;100.00;102262.41;5060532;28;20439;-74
2023/09/14 09:46:33;;;;;;;9.52;6.50;;;;;;;18.35;100.00;102254.16;5071044;28;20033;-75
2023/09/14 09:48:59;;;;;;;8.55;6.22;;;;;;;18.42;100.00;102260.09;5068515;28;20044;-74
2023/09/14 09:51:25;;;;;;;8.50;4.85;;;;;;;18.42;100.00;102260.97;5070703;28;20033;-74
2023/09/14 09:54:04;;;;;;;6.63;4.70;;;;;;;18.19;100.00;102258.22;5066577;28;20032;-75
2023/09/14 09:56:29;;;;;;;8.73;5.18;;;;;;;17.99;100.00;102265.00;5071152;28;20042;-74
2023/09/14 09:58:55;;;;;;;10.15;6.32;;;;;;;18.15;100.00;102260.13;5067309;28;20383;-75
2023/09/14 10:01:21;;;;;;;12.18;7.13;;;;;;;18.39;100.00;102252.28;5070910;28;20045;-75
2023/09/14 10:03:49;;;;;;;11.13;6.65;;;;;;;18.62;100.00;102254.13;5068684;28;20024;-74
2023/09/14 10:06:14;;;;;;;12.88;5.72;;;;;;;18.55;100.00;102253.50;5070756;28;20032;-75
2023/09/14 10:08:40;;;;;;;8.32;4.03;;;;;;;18.65;100.00;102254.03;5067281;28;20025;-74
2023/09/14 10:11:06;;;;;;;7.88;4.68;;;;;;;18.88;100.00;102250.59;5059812;28;20029;-75
2023/09/14 10:13:32;;;;;;;7.85;4.65;;;;;;;18.93;100.00;102233.69;5062408;28;20029;-75
2023/09/14 10:16:00;;;;;;;6.78;4.57;;;;;;;19.02;100.00;102247.47;5069864;28;20067;-75
2023/09/14 10:18:28;;;;;;;7.15;4.82;;;;;;;18.98;100.00;102245.84;5068892;28;20056;-74
2023/09/14 10:20:55;;;;;;;5.47;3.95;;;;;;;18.90;100.00;102239.06;5068276;28;20032;-75
2023/09/14 10:23:21;;;;;;;6.57;3.85;;;;;;;19.01;100.00;102241.31;5071020;28;20111;-75
2023/09/14 10:25:49;;;;;;;5.28;3.75;;;;;;;18.92;100.00;102242.50;5065358;28;20119;-74
2023/09/14 10:28:15;;;;;;;5.35;3.22;;;;;;;19.11;100.00;102247.13;5071580;28;20046;-75
2023/09/14 10:30:43;;;;;;;4.15;3.15;;;;;;;19.42;92.74;102244.19;5064635;28;20056;-75
2023/09/14 10:33:10;;;;;;;7.28;4.75;;;;;;;19.59;94.85;102236.47;5071174;28;20036;-74
2023/09/14 10:35:38;;;;;;;8.35;4.75;;;;;;;19.86;97.27;102246.91;5065444;28;20029;-75
2023/09/14 10:38:05;;;;;;;7.38;3.70;;;;;;;19.97;98.75;102239.38;5070962;28;20561;-75
2023/09/14 10:40:33;;;;;;;6.78;3.63;;;;;;;19.80;97.16;102226.84;5065829;28;20060;-74
2023/09/14 10:42:59;;;;;;;5.47;3.60;;;;;;;19.64;96.21;102233.66;5067466;28;20038;-75
2023/09/14 10:45:26;;;;;;;8.05;3.83;;;;;;;19.53;95.99;102227.91;5066602;28;20466;-75
2023/09/14 10:47:52;;;;;;;6.05;3.60;;;;;;;19.58;96.43;102225.94;5068597;28;20074;-75
2023/09/14 10:50:21;;;;;;;3.40;2.88;;;;;;;19.70;95.99;102229.94;5071129;28;20025;-75
2023/09/14 10:52:47;;;;;;;4.38;3.28;;;;;;;20.03;96.90;102217.97;5074516;28;20031;-74
2023/09/14 10:55:13;;;;;;;5.80;3.90;;;;;;;20.60;94.17;102218.25;5070172;28;20025;-75
2023/09/14 10:57:40;;;;;;;5.75;3.58;;;;;;;21.11;91.32;102210.66;5074675;28;20031;-75
2023/09/14 11:00:07;;;;;;;4.88;3.00;;;;;;;21.56;82.40;102214.78;5068427;28;20032;-75
2023/09/14 11:02:45;;;;;;;5.60;3.60;;;;;;;21.93;84.03;102209.38;5074742;28;20035;-75
2023/09/14 11:05:24;;;;;;;5.57;3.17;;;;;;;22.23;77.89;102213.25;5070687;28;20047;-75
2023/09/14 11:07:57;;;;;;;4.13;2.95;;;;;;;22.37;80.11;102208.13;5073885;28;20476;-75